Kuemmersruck, Germany

11:32 PM CET on March 28, 2015 (GMT +0100)
Garasch Dach | | Change Station
CLOSE
Current Station
Personal Weather Station
Location: Schnaittenbach, BAYERN
Elevation: 1312 ft
Nearby Weather Stations

Elev 1312 ft 49.55 °N, 12.00 °E | Updated 37 seconds ago

Mostly Cloudy
Mostly Cloudy
45.0 °F
Feels Like 45 °F
N
0.0
Wind Variable Wind from ESE
Gusts 0.0 mph

Today
High -- | Low -- °F
--% Chance of Precip.
Yesterday
High -- | Low -- °F
Precip. -- in
5:59 AM 6:36 PM
Waxing Gibbous, 66% visible
Pressure 29.98 in
Visibility 6.2 miles
Clouds Mostly Cloudy 2600 ft
Mostly Cloudy 3100 ft
Mostly Cloudy 3900 ft
Windchill 45 °F
Dew Point 38 °F
Humidity 76%
Rainfall in
Snow Depth Not available.
UV 0.0 out of 12
Pollen Not available.
Air Quality Not available.
Flu Activity Not available.
SPECI ETIH 282225Z AUTO VRB01KT 9999 BKN026 BKN031 BKN039 07/03 A2998 RMK AO2 CIG 026V037 BKN026 V SCT

More Conditions Fewer Conditions

Pressure 29.98 in
Visibility 6.2 miles
Clouds Mostly Cloudy 2600 ft
Mostly Cloudy 3100 ft
Mostly Cloudy 3900 ft
Windchill 45 °F
Dew Point 38 °F
Humidity 76%
Rainfall in
Snow Depth Not available.
UV 0.0 out of 12
Pollen Not available.
Air Quality Not available.
Flu Activity Not available.
SPECI ETIH 282225Z AUTO VRB01KT 9999 BKN026 BKN031 BKN039 07/03 A2998 RMK AO2 CIG 026V037 BKN026 V SCT

More Conditions Fewer Conditions

10-Day Weather Forecast

Almanac

Astronomy

Mar. 28, 2015 Rise Set
Actual Time
Civil Twilight
Nautical Twilight
Astronomical Twilight
Moon
Length of Visible Light
Length of Day
Tomorrow will be .
, % of the Moon is Illuminated

Today's Extremes

Country Highs Country Lows

Community

WunderPhotos

Upload Photos

1,809,110 photos uploaded!

WunderBlogs® & News

Nearby

Air Quality

  Air Quality AQ Index Pollutant
Not available.

Snow Depth

Station Depth Elevation

Earthquake Activity

City Distance Mag. Time & Date
Minimum magnitude displayed is 2.5.

Coastal Water Temperatures

Place Temperature

Stations

Nearby Weather Stations

Station Location Temp. Windchill Dew Point Humidity Wind Precip. Elev Updated Type